createdAt,value
2022-10-18T00:00:08.777Z,29.70
2022-10-18T00:02:57.977Z,29.65
2022-10-18T00:05:24.991Z,28.95
2022-10-18T00:07:51.785Z,37.17
2022-10-18T00:10:19.129Z,26.67
2022-10-18T00:15:13.938Z,34.25
2022-10-18T00:17:40.759Z,39.10
2022-10-18T00:20:08.512Z,28.00
2022-10-18T00:22:39.834Z,24.35
2022-10-18T00:25:08.202Z,25.80
2022-10-18T00:27:35.579Z,25.83
2022-10-18T00:30:03.210Z,26.00
2022-10-18T00:32:30.313Z,30.52
2022-10-18T00:34:57.594Z,23.55
2022-10-18T00:37:24.444Z,25.95
2022-10-18T00:42:21.021Z,28.95
2022-10-18T00:44:51.160Z,26.38
2022-10-18T00:47:18.355Z,28.88
2022-10-18T00:49:51.756Z,24.10
2022-10-18T00:52:22.503Z,25.27
2022-10-18T00:54:51.462Z,25.85
2022-10-18T00:57:18.554Z,26.15
2022-10-18T00:59:46.491Z,26.25
2022-10-18T01:02:15.095Z,23.45
2022-10-18T01:04:42.233Z,25.70
2022-10-18T01:07:27.590Z,29.08
2022-10-18T01:10:15.485Z,24.20
2022-10-18T01:13:03.396Z,25.42
2022-10-18T01:15:38.214Z,21.20
2022-10-18T01:18:10.506Z,27.38
2022-10-18T01:20:59.341Z,31.40
2022-10-18T01:23:45.983Z,23.92
2022-10-18T01:26:19.430Z,23.88
2022-10-18T01:28:55.402Z,28.38
2022-10-18T01:31:25.931Z,25.65
2022-10-18T01:33:57.771Z,24.35
2022-10-18T01:36:33.387Z,22.98
2022-10-18T01:39:03.137Z,24.38
2022-10-18T01:41:30.190Z,25.52
2022-10-18T01:43:59.060Z,25.30
2022-10-18T01:46:26.659Z,25.38
2022-10-18T01:48:54.824Z,25.55
2022-10-18T01:51:30.388Z,26.13
2022-10-18T01:53:57.587Z,23.40
2022-10-18T01:56:38.026Z,24.65
2022-10-18T01:59:07.786Z,19.67
2022-10-18T02:01:43.142Z,22.30
2022-10-18T02:04:34.757Z,24.92
2022-10-18T02:07:20.436Z,28.35
2022-10-18T02:09:55.206Z,26.95
2022-10-18T02:12:22.685Z,25.85
2022-10-18T02:14:49.789Z,23.42
2022-10-18T02:17:17.452Z,22.45
2022-10-18T02:19:48.631Z,24.20
2022-10-18T02:22:16.581Z,22.73
2022-10-18T02:24:47.928Z,22.52
2022-10-18T02:27:14.977Z,28.15
2022-10-18T02:29:42.404Z,26.45
2022-10-18T02:32:17.969Z,22.40
2022-10-18T02:34:51.565Z,20.90
2022-10-18T02:37:19.074Z,23.00
2022-10-18T02:39:48.397Z,21.35
2022-10-18T02:42:16.112Z,27.75
2022-10-18T02:44:43.228Z,25.00
2022-10-18T02:47:11.037Z,25.02
2022-10-18T02:49:37.883Z,23.88
2022-10-18T02:52:04.955Z,22.05
2022-10-18T02:54:31.781Z,23.40
2022-10-18T02:56:59.061Z,22.15
2022-10-18T02:59:25.887Z,24.77
2022-10-18T03:01:53.056Z,29.00
2022-10-18T03:04:20.009Z,23.35
2022-10-18T03:06:47.082Z,25.02
2022-10-18T03:09:13.859Z,21.02
2022-10-18T03:11:40.905Z,24.33
2022-10-18T03:14:07.700Z,19.88
2022-10-18T03:16:34.709Z,18.92
2022-10-18T03:19:01.545Z,21.13
2022-10-18T03:21:28.587Z,18.83
2022-10-18T03:23:56.109Z,22.70
2022-10-18T03:26:23.141Z,20.85
2022-10-18T03:28:50.030Z,19.45
2022-10-18T03:31:17.204Z,21.30
2022-10-18T03:33:44.119Z,20.10
2022-10-18T03:36:12.168Z,21.42
2022-10-18T03:38:38.922Z,20.85
2022-10-18T03:41:06.356Z,23.08
2022-10-18T03:43:33.166Z,19.80
2022-10-18T03:46:01.062Z,19.40
2022-10-18T03:48:28.176Z,24.52
2022-10-18T03:50:55.439Z,21.30
2022-10-18T03:53:22.271Z,17.98
2022-10-18T03:55:53.135Z,19.77
2022-10-18T03:58:20.441Z,19.00
2022-10-18T04:00:51.836Z,19.73
2022-10-18T04:03:19.486Z,18.85
2022-10-18T04:05:47.042Z,22.55
2022-10-18T04:08:14.884Z,23.83
2022-10-18T04:10:42.196Z,22.83
2022-10-18T04:13:09.468Z,26.15
2022-10-18T04:15:36.881Z,20.02
2022-10-18T04:18:03.883Z,23.88
2022-10-18T04:20:30.907Z,22.83
2022-10-18T04:22:58.215Z,17.98
2022-10-18T04:25:25.355Z,20.20
2022-10-18T04:27:52.191Z,17.92
2022-10-18T04:30:19.245Z,15.95
2022-10-18T04:32:46.004Z,21.20
2022-10-18T04:35:13.411Z,18.15
2022-10-18T04:37:40.253Z,22.30
2022-10-18T04:40:07.965Z,18.33
2022-10-18T04:42:34.864Z,20.40
2022-10-18T04:45:01.915Z,18.23
2022-10-18T04:47:29.114Z,18.48
2022-10-18T04:49:56.542Z,23.58
2022-10-18T04:52:23.541Z,19.70
2022-10-18T04:54:50.854Z,19.83
2022-10-18T04:57:17.686Z,20.73
2022-10-18T04:59:44.974Z,26.33
2022-10-18T05:02:11.875Z,17.20
2022-10-18T05:04:39.107Z,20.65
2022-10-18T05:07:06.690Z,18.45
2022-10-18T05:09:33.984Z,18.38
2022-10-18T05:12:00.806Z,17.95
2022-10-18T05:14:27.872Z,17.00
2022-10-18T05:16:54.654Z,16.25
2022-10-18T05:19:21.912Z,15.45
2022-10-18T05:21:48.788Z,18.00
2022-10-18T05:24:15.853Z,19.80
2022-10-18T05:26:42.743Z,19.02
2022-10-18T05:29:09.903Z,17.42
2022-10-18T05:31:36.811Z,20.65
2022-10-18T05:34:04.236Z,19.65
2022-10-18T05:36:31.243Z,18.70
2022-10-18T05:39:01.040Z,18.52
2022-10-18T05:41:31.535Z,20.30
2022-10-18T05:43:58.887Z,15.50
2022-10-18T05:46:25.739Z,15.32
2022-10-18T05:48:53.004Z,22.00
2022-10-18T05:51:19.940Z,15.05
2022-10-18T05:53:47.036Z,20.20
2022-10-18T05:56:14.499Z,14.55
2022-10-18T05:58:42.590Z,15.18
2022-10-18T06:01:10.419Z,16.88
2022-10-18T06:03:37.467Z,16.85
2022-10-18T06:06:10.684Z,17.52
2022-10-18T06:08:38.724Z,16.70
2022-10-18T06:11:13.805Z,16.88
2022-10-18T06:13:45.898Z,17.60
2022-10-18T06:16:14.258Z,17.17
2022-10-18T06:18:41.395Z,16.00
2022-10-18T06:21:09.027Z,16.40
2022-10-18T06:23:36.409Z,19.85
2022-10-18T06:26:05.878Z,19.95
2022-10-18T06:28:35.339Z,18.33
2022-10-18T06:31:02.577Z,17.50
2022-10-18T06:33:31.529Z,15.40
2022-10-18T06:36:00.269Z,17.88
2022-10-18T06:38:28.420Z,18.40
2022-10-18T06:40:56.067Z,16.20
2022-10-18T06:43:23.722Z,18.40
2022-10-18T06:45:50.942Z,16.65
2022-10-18T06:51:04.136Z,16.70
2022-10-18T06:53:33.678Z,15.73
2022-10-18T06:56:01.779Z,16.90
2022-10-18T06:58:29.838Z,19.40
2022-10-18T07:00:57.259Z,17.77
2022-10-18T07:03:24.337Z,16.65
2022-10-18T07:05:51.170Z,19.63
2022-10-18T07:08:18.742Z,15.98
2022-10-18T07:10:53.301Z,16.40
2022-10-18T07:13:32.010Z,19.10
2022-10-18T07:16:01.337Z,15.77
2022-10-18T07:18:28.716Z,15.82
2022-10-18T07:20:55.565Z,14.48
2022-10-18T07:23:23.954Z,16.10
2022-10-18T07:25:51.862Z,18.15
2022-10-18T07:28:18.983Z,15.60
2022-10-18T07:30:45.785Z,16.73
2022-10-18T07:33:12.934Z,17.42
2022-10-18T07:35:39.720Z,17.75
2022-10-18T07:38:06.828Z,14.77
2022-10-18T07:40:33.719Z,16.58
2022-10-18T07:43:04.548Z,14.52
2022-10-18T07:45:32.520Z,16.52
2022-10-18T07:47:59.591Z,16.42
2022-10-18T07:50:26.419Z,13.68
2022-10-18T07:52:53.494Z,14.25
2022-10-18T07:55:20.270Z,11.45
2022-10-18T07:57:47.612Z,16.33
2022-10-18T08:00:14.663Z,13.98
2022-10-18T08:02:42.372Z,10.82
2022-10-18T08:05:09.558Z,12.38
2022-10-18T08:07:36.642Z,13.35
2022-10-18T08:10:04.022Z,12.55
2022-10-18T08:12:31.309Z,12.43
2022-10-18T08:14:58.077Z,15.02
2022-10-18T08:17:25.118Z,14.50
2022-10-18T08:51:48.618Z,14.43
2022-10-18T08:54:25.682Z,11.57
2022-10-18T08:56:59.792Z,12.05
2022-10-18T08:59:31.057Z,14.88
2022-10-18T09:02:22.793Z,12.10
2022-10-18T09:05:17.583Z,16.73
2022-10-18T09:08:01.762Z,14.35
2022-10-18T09:11:16.483Z,13.23
2022-10-18T09:14:07.565Z,14.25
2022-10-18T09:16:46.401Z,11.93
2022-10-18T09:19:38.107Z,12.57
2022-10-18T09:22:13.932Z,14.90
2022-10-18T09:24:46.476Z,12.98
2022-10-18T09:27:18.344Z,13.43
2022-10-18T09:29:57.471Z,13.50
2022-10-18T09:32:30.961Z,14.25
2022-10-18T09:35:18.010Z,15.65
2022-10-18T09:37:45.422Z,12.38
2022-10-18T09:40:24.888Z,12.43
2022-10-18T09:43:12.300Z,12.70
2022-10-18T09:45:44.383Z,13.70
2022-10-18T09:48:28.448Z,18.48
2022-10-18T09:51:04.169Z,14.88
2022-10-18T09:53:42.298Z,15.75
2022-10-18T09:56:16.064Z,22.33
2022-10-18T09:58:48.504Z,19.45
2022-10-18T10:01:24.762Z,14.40
2022-10-18T10:03:52.225Z,19.83
2022-10-18T10:06:34.616Z,16.40
2022-10-18T10:09:15.974Z,16.13
2022-10-18T10:11:48.548Z,15.38
2022-10-18T10:16:50.319Z,16.95
2022-10-18T10:19:19.411Z,17.55
2022-10-18T10:21:47.928Z,13.85
2022-10-18T10:24:40.749Z,19.02
2022-10-18T10:27:18.707Z,13.95
2022-10-18T10:29:45.712Z,20.10
2022-10-18T10:32:14.778Z,14.32
2022-10-18T10:34:44.637Z,15.95
2022-10-18T10:37:30.693Z,13.30
2022-10-18T10:40:19.338Z,15.40
2022-10-18T10:43:18.120Z,17.15
2022-10-18T10:46:11.280Z,14.40
2022-10-18T10:48:46.923Z,18.25
2022-10-18T10:51:14.626Z,15.40
2022-10-18T10:54:01.735Z,14.27
2022-10-18T10:56:31.533Z,14.80
2022-10-18T10:59:07.080Z,14.82
2022-10-18T11:01:34.416Z,14.63
2022-10-18T11:04:04.842Z,21.33
2022-10-18T11:06:34.113Z,16.27
2022-10-18T11:09:04.077Z,15.82
2022-10-18T11:11:34.085Z,16.02
2022-10-18T11:14:25.232Z,12.45
2022-10-18T11:17:14.939Z,18.23
2022-10-18T11:19:59.099Z,19.55
2022-10-18T11:22:28.151Z,13.90
2022-10-18T11:24:55.738Z,15.18
2022-10-18T11:27:29.667Z,16.80
2022-10-18T11:30:37.594Z,15.20
2022-10-18T11:34:08.087Z,15.20
2022-10-18T11:37:09.754Z,13.70
2022-10-18T11:40:01.760Z,17.70
2022-10-18T11:43:06.127Z,21.13
2022-10-18T11:45:51.901Z,17.25
2022-10-18T11:48:37.755Z,15.95
2022-10-18T11:51:21.985Z,19.20
2022-10-18T11:54:17.954Z,21.52
2022-10-18T11:56:47.893Z,13.45
2022-10-18T11:59:35.982Z,13.48
2022-10-18T12:02:31.362Z,14.95
2022-10-18T12:07:54.067Z,20.40
2022-10-18T12:10:31.469Z,16.13
2022-10-18T12:13:13.643Z,19.80
2022-10-18T12:15:40.840Z,20.98
2022-10-18T12:18:15.161Z,17.67
2022-10-18T12:20:43.754Z,19.90
2022-10-18T12:23:17.981Z,19.83
2022-10-18T12:25:56.626Z,16.10
2022-10-18T12:28:29.549Z,19.05
2022-10-18T12:31:08.614Z,16.52
2022-10-18T12:33:42.291Z,18.38
2022-10-18T12:36:21.407Z,16.65
2022-10-18T12:38:57.279Z,13.25
2022-10-18T12:41:33.045Z,16.52
2022-10-18T12:44:07.293Z,15.98
2022-10-18T12:46:54.931Z,12.48
2022-10-18T12:49:28.696Z,14.05
2022-10-18T12:52:00.691Z,15.73
2022-10-18T12:54:32.279Z,14.43
2022-10-18T12:57:00.670Z,10.43
2022-10-18T12:59:27.678Z,13.02
2022-10-18T13:01:54.587Z,13.73
2022-10-18T13:04:28.106Z,11.63
2022-10-18T13:07:02.921Z,13.00
2022-10-18T13:09:41.232Z,11.82
2022-10-18T13:12:11.083Z,14.93
2022-10-18T13:14:59.198Z,11.25
2022-10-18T13:17:40.231Z,17.35
2022-10-18T13:20:25.125Z,17.27
2022-10-18T13:23:05.754Z,14.63
2022-10-18T13:25:41.642Z,15.15
2022-10-18T13:28:32.308Z,13.75
2022-10-18T13:31:20.717Z,13.40
2022-10-18T13:33:47.831Z,13.13
2022-10-18T13:36:22.650Z,21.92
2022-10-18T13:38:50.495Z,13.88
2022-10-18T13:43:54.221Z,16.52
2022-10-18T13:46:33.090Z,15.00
2022-10-18T13:49:15.018Z,12.45
2022-10-18T13:52:07.793Z,15.40
2022-10-18T13:54:55.227Z,12.45
2022-10-18T13:57:43.978Z,13.40
2022-10-18T14:00:49.273Z,11.48
2022-10-18T14:03:55.090Z,14.90
2022-10-18T14:06:16.617Z,19.55
2022-10-18T14:08:43.591Z,11.23
2022-10-18T14:11:29.325Z,13.32
2022-10-18T14:14:06.895Z,17.08
2022-10-18T14:16:37.653Z,19.63
2022-10-18T14:19:12.188Z,11.82
2022-10-18T14:21:40.494Z,12.73
2022-10-18T14:24:19.508Z,15.27
2022-10-18T14:26:46.547Z,19.20
2022-10-18T14:29:19.536Z,20.27
2022-10-18T14:31:54.352Z,19.25
2022-10-18T14:34:21.902Z,17.80
2022-10-18T14:36:49.712Z,22.40
2022-10-18T14:39:21.130Z,19.77
2022-10-18T14:41:56.722Z,22.40
2022-10-18T14:44:34.860Z,18.70
2022-10-18T14:47:04.319Z,19.02
2022-10-18T14:49:31.438Z,20.05
2022-10-18T14:51:59.593Z,19.67
2022-10-18T14:54:32.984Z,18.92
2022-10-18T14:57:01.085Z,15.73
2022-10-18T14:59:31.270Z,18.98
2022-10-18T15:02:12.651Z,18.15
2022-10-18T15:04:39.789Z,21.33
2022-10-18T15:07:07.919Z,15.55
2022-10-18T15:09:36.151Z,19.98
2022-10-18T15:12:05.742Z,19.77
2022-10-18T15:14:34.367Z,49.25
2022-10-18T15:17:30.107Z,110.55
2022-10-18T15:20:01.807Z,81.57
2022-10-18T15:22:33.196Z,159.23
2022-10-18T15:25:09.829Z,157.82
2022-10-18T15:27:38.657Z,115.32
2022-10-18T15:30:08.685Z,176.43
2022-10-18T15:32:35.736Z,203.25
2022-10-18T15:35:16.986Z,191.00
2022-10-18T15:37:47.956Z,155.82
2022-10-18T15:40:24.178Z,177.45
2022-10-18T15:42:59.449Z,55.70
2022-10-18T15:45:29.085Z,60.03
2022-10-18T15:48:10.808Z,216.48
2022-10-18T15:50:42.231Z,151.43
2022-10-18T15:53:21.283Z,131.55
2022-10-18T15:56:12.631Z,109.78
2022-10-18T15:58:45.448Z,141.38
2022-10-18T16:01:28.064Z,213.45
2022-10-18T16:06:26.979Z,141.57
2022-10-18T16:08:54.100Z,347.17
2022-10-18T16:11:25.448Z,306.17
2022-10-18T16:13:55.213Z,186.85
2022-10-18T16:16:27.068Z,135.05
2022-10-18T16:18:54.190Z,141.70
2022-10-18T16:21:31.936Z,137.35
2022-10-18T16:23:58.891Z,136.18
2022-10-18T16:26:27.453Z,90.28
2022-10-18T16:28:55.275Z,67.72
2022-10-18T16:31:25.057Z,61.20
2022-10-18T16:33:53.171Z,81.05
2022-10-18T16:36:26.006Z,38.55
2022-10-18T16:38:55.167Z,26.83
2022-10-18T16:41:23.442Z,36.08
2022-10-18T16:43:50.693Z,18.33
2022-10-18T16:46:17.744Z,59.25
2022-10-18T16:48:45.588Z,42.75
2022-10-18T16:51:12.829Z,26.38
2022-10-18T16:53:39.778Z,25.95
2022-10-18T16:56:13.312Z,29.25
2022-10-18T16:58:40.263Z,23.55
2022-10-18T17:01:09.004Z,25.58
2022-10-18T17:03:36.137Z,24.17
2022-10-18T17:06:03.194Z,26.70
2022-10-18T17:08:30.126Z,34.90
2022-10-18T17:10:59.024Z,30.45
2022-10-18T17:13:26.241Z,28.30
2022-10-18T17:15:53.861Z,30.40
2022-10-18T17:18:24.710Z,28.58
2022-10-18T17:20:51.815Z,32.20
2022-10-18T17:23:18.646Z,28.83
2022-10-18T17:25:59.003Z,37.47
2022-10-18T17:28:34.286Z,32.95
2022-10-18T17:31:01.563Z,32.10
2022-10-18T17:33:28.403Z,36.75
2022-10-18T17:35:55.402Z,36.00
2022-10-18T17:38:22.283Z,39.95
2022-10-18T17:40:49.533Z,30.95
2022-10-18T17:43:16.453Z,35.35
2022-10-18T17:45:51.122Z,34.55
2022-10-18T17:48:17.988Z,32.83
2022-10-18T17:50:45.077Z,36.05
2022-10-18T17:53:13.142Z,33.88
2022-10-18T17:55:40.398Z,35.30
2022-10-18T17:58:07.247Z,34.63
2022-10-18T18:00:34.341Z,38.53
2022-10-18T18:03:01.212Z,30.77
2022-10-18T18:05:32.861Z,37.22
2022-10-18T18:08:03.746Z,36.90
2022-10-18T18:10:35.272Z,32.17
2022-10-18T18:13:02.568Z,35.58
2022-10-18T18:15:29.870Z,33.45
2022-10-18T18:17:57.864Z,37.65
2022-10-18T18:20:26.345Z,38.80
2022-10-18T18:22:53.526Z,35.58
2022-10-18T18:25:20.653Z,40.70
2022-10-18T18:27:47.574Z,40.55
2022-10-18T18:30:17.896Z,50.67
2022-10-18T18:32:45.146Z,52.08
2022-10-18T18:35:12.113Z,45.42
2022-10-18T18:37:38.972Z,51.30
2022-10-18T18:40:06.515Z,40.72
2022-10-18T18:42:33.504Z,37.47
2022-10-18T18:45:00.738Z,35.75
2022-10-18T18:47:28.065Z,33.08
2022-10-18T18:49:55.123Z,33.60
2022-10-18T18:52:21.899Z,51.38
2022-10-18T18:54:48.963Z,39.92
2022-10-18T18:57:17.041Z,36.13
2022-10-18T18:59:44.211Z,36.42
2022-10-18T19:02:10.992Z,38.72
2022-10-18T19:04:38.232Z,34.00
2022-10-18T19:07:05.011Z,39.95
2022-10-18T19:09:32.822Z,40.13
2022-10-18T19:11:59.713Z,37.30
2022-10-18T19:14:28.919Z,38.90
2022-10-18T19:17:01.710Z,36.25
2022-10-18T19:19:30.562Z,33.53
2022-10-18T19:21:59.548Z,25.63
2022-10-18T19:24:28.359Z,25.27
2022-10-18T19:26:57.528Z,20.05
2022-10-18T19:29:27.081Z,14.75
2022-10-18T19:31:56.698Z,10.60
2022-10-18T19:34:25.075Z,10.60
2022-10-18T19:36:52.180Z,10.10
2022-10-18T19:39:30.346Z,7.25
2022-10-18T19:41:58.844Z,4.95
2022-10-18T19:44:29.601Z,4.72
2022-10-18T19:46:57.051Z,4.88
2022-10-18T19:49:24.337Z,2.75
2022-10-18T19:51:51.154Z,3.53
2022-10-18T19:54:18.447Z,2.53
2022-10-18T19:56:45.860Z,3.78
2022-10-18T19:59:15.105Z,2.80
2022-10-18T20:01:42.439Z,4.35
2022-10-18T20:04:10.365Z,4.13
2022-10-18T20:06:38.307Z,3.17
2022-10-18T20:09:06.768Z,4.72
2022-10-18T20:11:33.638Z,3.53
2022-10-18T20:14:00.672Z,4.95
2022-10-18T20:16:33.504Z,5.82
2022-10-18T20:19:03.460Z,3.08
2022-10-18T20:21:32.560Z,3.47
2022-10-18T20:23:59.601Z,3.42
2022-10-18T20:26:26.480Z,3.75
2022-10-18T20:28:59.535Z,5.55
2022-10-18T20:31:31.642Z,4.15
2022-10-18T20:34:00.926Z,6.10
2022-10-18T20:36:30.249Z,4.20
2022-10-18T20:38:57.524Z,5.30
2022-10-18T20:41:29.405Z,5.55
2022-10-18T20:44:01.803Z,4.20
2022-10-18T20:46:34.546Z,3.47
2022-10-18T20:49:01.760Z,4.47
2022-10-18T20:51:28.743Z,7.28
2022-10-18T20:53:56.198Z,4.85
2022-10-18T20:56:26.466Z,4.65
2022-10-18T20:58:55.762Z,5.22
2022-10-18T21:01:24.695Z,5.13
2022-10-18T21:03:53.656Z,6.30
2022-10-18T21:06:23.747Z,7.82
2022-10-18T21:08:57.804Z,7.35
2022-10-18T21:11:25.485Z,6.47
2022-10-18T21:13:54.275Z,6.97
2022-10-18T21:16:21.149Z,5.70
2022-10-18T21:18:48.891Z,6.30
2022-10-18T21:21:18.108Z,7.65
2022-10-18T21:23:45.565Z,5.88
2022-10-18T21:26:26.353Z,7.32
2022-10-18T21:28:56.687Z,7.18
2022-10-18T21:31:25.682Z,11.73
2022-10-18T21:33:54.790Z,9.43
2022-10-18T21:36:21.805Z,11.93
2022-10-18T21:38:49.258Z,10.02
2022-10-18T21:41:17.712Z,10.95
2022-10-18T21:43:50.250Z,10.30
2022-10-18T21:46:18.390Z,12.93
2022-10-18T21:48:47.622Z,11.02
2022-10-18T21:51:16.341Z,11.13
2022-10-18T21:53:44.427Z,13.63
2022-10-18T21:56:13.789Z,12.38
2022-10-18T21:58:41.705Z,11.70
2022-10-18T22:01:13.282Z,12.00
2022-10-18T22:03:40.724Z,10.48
2022-10-18T22:06:13.812Z,11.82
2022-10-18T22:08:54.888Z,14.13
2022-10-18T22:11:36.520Z,11.13
2022-10-18T22:14:03.815Z,14.25
2022-10-18T22:16:30.579Z,11.80
2022-10-18T22:18:59.714Z,11.90
2022-10-18T22:21:27.117Z,12.15
2022-10-18T22:23:58.746Z,14.75
2022-10-18T22:26:30.837Z,12.18
2022-10-18T22:29:00.703Z,12.63
2022-10-18T22:31:30.060Z,11.90
2022-10-18T22:33:59.435Z,14.73
2022-10-18T22:36:27.262Z,9.23
2022-10-18T22:38:54.555Z,10.13
2022-10-18T22:41:21.585Z,9.70
2022-10-18T22:43:50.729Z,8.90
2022-10-18T22:46:17.813Z,7.80
2022-10-18T22:48:44.987Z,8.57
2022-10-18T22:51:12.291Z,8.07
2022-10-18T22:53:40.060Z,10.93
2022-10-18T22:56:08.290Z,11.88
2022-10-18T22:58:35.365Z,17.60
2022-10-18T23:01:07.630Z,10.43
2022-10-18T23:03:35.510Z,14.35
2022-10-18T23:06:02.572Z,11.05
2022-10-18T23:08:30.142Z,11.50
2022-10-18T23:10:58.834Z,15.65
2022-10-18T23:13:26.824Z,12.93
2022-10-18T23:16:04.295Z,12.35
2022-10-18T23:18:32.978Z,13.85
2022-10-18T23:21:05.144Z,13.20
2022-10-18T23:23:35.424Z,14.20
2022-10-18T23:26:13.190Z,12.93
2022-10-18T23:28:45.187Z,11.20
2022-10-18T23:31:24.265Z,13.98
2022-10-18T23:33:53.858Z,12.80
2022-10-18T23:36:22.231Z,15.13
2022-10-18T23:38:49.520Z,14.82
2022-10-18T23:41:17.442Z,13.13
2022-10-18T23:43:44.686Z,11.32
2022-10-18T23:46:12.064Z,11.07
2022-10-18T23:48:39.456Z,11.27
2022-10-18T23:51:07.753Z,14.55
2022-10-18T23:53:35.326Z,13.02
2022-10-18T23:56:04.731Z,10.90
2022-10-18T23:58:33.058Z,13.13
